Time;durP1;ratioP1;P1;durP2;ratioP2;P2;SDS_P1;SDS_P2;PMS_P1;PMS_P2;Temp;Humidity;BMP_temperature;BMP_pressure;BME280_temperature;BME280_humidity;BME280_pressure;Samples;Min_cycle;Max_cycle;Signal;HPM_P1;HPM_P2
2023/12/24 00:01:57;;;;;;;0.40;0.40;;;11.80;99.90;;;;;;5033048;28;20203;-59
2023/12/24 00:04:24;;;;;;;1.53;0.40;;;11.80;99.90;;;;;;5040977;28;20215;-60
2023/12/24 00:06:52;;;;;;;0.47;0.33;;;11.90;99.90;;;;;;5043544;28;20610;-60
2023/12/24 00:09:19;;;;;;;0.30;0.30;;;11.90;99.90;;;;;;5044665;28;20205;-60
2023/12/24 00:11:45;;;;;;;0.43;0.30;;;11.80;99.90;;;;;;5042319;28;20255;-60
2023/12/24 00:14:12;;;;;;;0.90;0.40;;;11.80;99.90;;;;;;5040909;28;20210;-60
2023/12/24 00:16:41;;;;;;;1.10;0.30;;;11.90;99.90;;;;;;5041571;28;20238;-60
2023/12/24 00:19:08;;;;;;;0.50;0.47;;;11.90;99.90;;;;;;5044424;28;20651;-60
2023/12/24 00:21:35;;;;;;;1.27;0.30;;;11.90;99.90;;;;;;5043640;28;20263;-60
2023/12/24 00:24:03;;;;;;;0.30;0.30;;;12.00;99.90;;;;;;5040797;28;20226;-60
2023/12/24 00:26:31;;;;;;;0.53;0.30;;;12.00;99.90;;;;;;5040803;28;20744;-60
2023/12/24 00:28:57;;;;;;;0.80;0.30;;;12.00;99.90;;;;;;5032633;28;20206;-59
2023/12/24 00:31:24;;;;;;;0.30;0.30;;;12.00;99.90;;;;;;5040785;28;20206;-60
2023/12/24 00:33:51;;;;;;;1.03;0.57;;;12.10;99.90;;;;;;5043368;28;20202;-60
2023/12/24 00:36:17;;;;;;;0.53;0.40;;;12.10;99.90;;;;;;5043967;28;20267;-61
2023/12/24 00:38:44;;;;;;;0.83;0.40;;;12.20;99.90;;;;;;5042159;28;20205;-59
2023/12/24 00:41:12;;;;;;;0.97;0.40;;;12.20;99.90;;;;;;5040078;28;20210;-60
2023/12/24 00:43:39;;;;;;;1.17;0.50;;;12.30;99.90;;;;;;5041114;28;20229;-60
2023/12/24 00:46:05;;;;;;;0.67;0.37;;;12.20;99.90;;;;;;5043639;28;20226;-60
2023/12/24 00:48:32;;;;;;;0.40;0.30;;;12.20;99.90;;;;;;5043770;28;20255;-59
2023/12/24 00:50:59;;;;;;;0.73;0.20;;;12.10;99.90;;;;;;5032274;28;20210;-60
2023/12/24 00:53:25;;;;;;;0.63;0.30;;;12.10;99.90;;;;;;5040252;28;20365;-60
2023/12/24 00:55:52;;;;;;;0.57;0.47;;;12.10;99.90;;;;;;5042795;28;20272;-60
2023/12/24 00:58:20;;;;;;;0.97;0.40;;;12.10;99.90;;;;;;5043641;28;20209;-60
2023/12/24 01:00:46;;;;;;;1.00;0.37;;;12.10;99.90;;;;;;5041387;28;20205;-60
2023/12/24 01:03:14;;;;;;;0.27;0.20;;;12.10;99.90;;;;;;5040071;28;20367;-60
2023/12/24 01:05:40;;;;;;;0.30;0.20;;;12.10;99.90;;;;;;5040959;28;20264;-60
2023/12/24 01:08:07;;;;;;;1.27;0.40;;;12.10;99.90;;;;;;5042938;28;20667;-60
2023/12/24 01:10:34;;;;;;;0.30;0.20;;;12.20;99.90;;;;;;5042900;28;20209;-60
2023/12/24 01:13:00;;;;;;;0.20;0.20;;;12.10;99.90;;;;;;5039574;28;20690;-60
2023/12/24 01:15:28;;;;;;;1.47;0.37;;;12.20;99.90;;;;;;5039550;28;20739;-60
2023/12/24 01:17:56;;;;;;;0.40;0.40;;;12.20;99.90;;;;;;5042827;28;20206;-60
2023/12/24 01:20:22;;;;;;;0.47;0.33;;;12.20;99.90;;;;;;5043034;28;20234;-60
2023/12/24 01:22:49;;;;;;;0.67;0.47;;;12.20;99.90;;;;;;5040732;28;20221;-59
2023/12/24 01:25:16;;;;;;;0.90;0.40;;;12.20;99.90;;;;;;5039796;28;20541;-60
2023/12/24 01:27:43;;;;;;;0.67;0.30;;;12.20;99.90;;;;;;5040650;28;20698;-60
2023/12/24 01:30:10;;;;;;;0.80;0.40;;;12.10;99.90;;;;;;5043033;28;20228;-60
2023/12/24 01:32:38;;;;;;;0.83;0.43;;;12.20;99.90;;;;;;5042475;28;20205;-60
2023/12/24 01:35:06;;;;;;;0.37;0.30;;;12.20;99.90;;;;;;5039410;28;20210;-59
2023/12/24 01:37:32;;;;;;;2.40;1.03;;;12.20;99.90;;;;;;5039576;28;20210;-60
2023/12/24 01:39:59;;;;;;;9.43;4.17;;;12.20;99.90;;;;;;5031082;28;20205;-60
2023/12/24 01:42:26;;;;;;;2.40;1.20;;;12.20;99.90;;;;;;5039358;28;20555;-60
2023/12/24 01:44:52;;;;;;;2.43;0.93;;;12.20;99.90;;;;;;5041659;28;20703;-60
2023/12/24 01:47:19;;;;;;;0.60;0.30;;;12.20;99.90;;;;;;5042856;28;20244;-60
2023/12/24 01:49:49;;;;;;;0.73;0.30;;;12.10;99.90;;;;;;5041160;28;20201;-60
2023/12/24 01:52:16;;;;;;;1.47;0.60;;;12.00;99.90;;;;;;5039190;28;20205;-60
2023/12/24 01:54:44;;;;;;;0.23;0.23;;;11.90;99.90;;;;;;5040273;28;20206;-59
2023/12/24 01:57:12;;;;;;;1.60;0.47;;;12.00;99.90;;;;;;5043003;28;20229;-60
2023/12/24 01:59:40;;;;;;;1.07;0.60;;;12.00;99.90;;;;;;5042259;28;20213;-60
2023/12/24 02:02:08;;;;;;;1.23;0.40;;;12.00;99.90;;;;;;5039000;28;20621;-60
2023/12/24 02:04:35;;;;;;;0.77;0.40;;;12.00;99.90;;;;;;5039163;28;20292;-60
2023/12/24 02:07:03;;;;;;;0.70;0.40;;;12.20;99.90;;;;;;5031162;28;20218;-60
2023/12/24 02:09:30;;;;;;;1.90;0.53;;;12.20;99.90;;;;;;5039094;28;20237;-60
2023/12/24 02:11:57;;;;;;;1.90;0.70;;;12.20;99.90;;;;;;5042192;28;20202;-60
2023/12/24 02:14:23;;;;;;;1.17;0.63;;;12.20;99.90;;;;;;5042686;28;20210;-60
2023/12/24 02:16:51;;;;;;;0.60;0.53;;;12.20;99.90;;;;;;5040326;28;20233;-60
2023/12/24 02:19:19;;;;;;;1.23;0.60;;;12.00;99.90;;;;;;5040992;28;20202;-60
2023/12/24 02:21:47;;;;;;;2.90;0.33;;;11.90;99.90;;;;;;5044127;28;20300;-59
2023/12/24 02:24:15;;;;;;;0.40;0.20;;;12.00;99.90;;;;;;5046381;28;20213;-60
2023/12/24 02:26:48;;;;;;;0.90;0.30;;;12.00;99.90;;;;;;5045388;28;20230;-60
2023/12/24 02:29:23;;;;;;;0.90;0.43;;;12.00;99.90;;;;;;5048657;28;20210;-60
2023/12/24 02:31:58;;;;;;;1.93;0.40;;;12.00;99.90;;;;;;5044016;28;20231;-60
2023/12/24 02:34:27;;;;;;;0.77;0.47;;;11.90;99.90;;;;;;5042802;28;20202;-60
2023/12/24 02:36:56;;;;;;;0.40;0.40;;;11.90;99.90;;;;;;5045230;28;20227;-60
2023/12/24 02:39:22;;;;;;;0.83;0.47;;;11.90;99.90;;;;;;5046233;28;20581;-60
2023/12/24 02:41:49;;;;;;;0.63;0.30;;;11.90;99.90;;;;;;5043816;28;20259;-59
2023/12/24 02:44:16;;;;;;;0.57;0.40;;;12.00;99.90;;;;;;5042496;28;20252;-60
2023/12/24 02:46:42;;;;;;;0.47;0.30;;;11.90;99.90;;;;;;5043195;28;20234;-60
2023/12/24 02:49:09;;;;;;;1.43;0.43;;;11.90;99.90;;;;;;5045977;28;20293;-60
2023/12/24 02:51:36;;;;;;;0.33;0.30;;;11.90;99.90;;;;;;5045807;28;20213;-60
2023/12/24 02:54:04;;;;;;;1.17;0.40;;;11.90;99.90;;;;;;5042470;28;20589;-59
2023/12/24 02:56:36;;;;;;;0.63;0.30;;;11.90;99.90;;;;;;5042314;28;20230;-60
2023/12/24 02:59:02;;;;;;;0.63;0.30;;;11.90;99.90;;;;;;5034255;28;20695;-60
2023/12/24 03:01:29;;;;;;;1.00;0.30;;;11.80;99.90;;;;;;5049273;28;20210;-60
2023/12/24 03:03:56;;;;;;;0.63;0.30;;;11.80;99.90;;;;;;5042816;28;20229;-59
2023/12/24 03:06:23;;;;;;;0.20;0.20;;;11.80;99.90;;;;;;5042266;28;20233;-59
2023/12/24 03:08:49;;;;;;;1.40;0.20;;;11.90;99.90;;;;;;5043841;28;20293;-59
2023/12/24 03:11:17;;;;;;;1.47;0.50;;;11.90;99.90;;;;;;5045369;28;20232;-60
2023/12/24 03:13:44;;;;;;;0.87;0.40;;;11.80;99.90;;;;;;5044107;28;20201;-60
2023/12/24 03:16:11;;;;;;;1.87;0.30;;;11.70;99.90;;;;;;5041762;28;20230;-59
2023/12/24 03:18:37;;;;;;;0.87;0.40;;;11.70;99.90;;;;;;5042084;28;20214;-60
2023/12/24 03:21:05;;;;;;;0.20;0.20;;;11.80;99.90;;;;;;5045180;28;20866;-59
2023/12/24 03:23:31;;;;;;;1.97;0.80;;;11.70;99.90;;;;;;5045151;28;20225;-59
2023/12/24 03:25:58;;;;;;;0.70;0.50;;;11.70;99.90;;;;;;5042063;28;20927;-60
2023/12/24 03:28:26;;;;;;;0.90;0.40;;;11.80;99.90;;;;;;5041670;28;20202;-60
2023/12/24 03:30:53;;;;;;;0.37;0.20;;;11.80;99.90;;;;;;5043470;28;20259;-59
2023/12/24 03:33:20;;;;;;;0.50;0.27;;;11.80;99.90;;;;;;5045112;28;20205;-60
2023/12/24 03:35:46;;;;;;;2.77;0.40;;;11.80;99.90;;;;;;5043661;28;20225;-60
2023/12/24 03:38:13;;;;;;;0.20;0.20;;;11.70;99.90;;;;;;5041626;28;20285;-59
2023/12/24 03:40:40;;;;;;;0.60;0.37;;;11.70;99.90;;;;;;5041587;28;20304;-59
2023/12/24 03:43:07;;;;;;;0.50;0.40;;;11.70;99.90;;;;;;5044769;28;20619;-59
2023/12/24 03:45:35;;;;;;;2.40;0.30;;;11.70;99.90;;;;;;5044689;28;20221;-59
2023/12/24 03:48:04;;;;;;;0.93;0.30;;;11.70;99.90;;;;;;5041488;28;20586;-59
2023/12/24 03:50:31;;;;;;;2.63;0.50;;;11.60;99.90;;;;;;5041234;28;20594;-60
2023/12/24 03:52:58;;;;;;;0.30;0.30;;;11.60;99.90;;;;;;5043842;28;20216;-59
2023/12/24 03:55:24;;;;;;;0.47;0.30;;;11.60;99.90;;;;;;5044506;28;20225;-60
2023/12/24 03:57:51;;;;;;;0.37;0.20;;;11.50;99.90;;;;;;5042966;28;20209;-60
2023/12/24 04:00:18;;;;;;;0.17;0.17;;;11.60;99.90;;;;;;5041154;28;20203;-59
2023/12/24 04:02:46;;;;;;;0.83;0.23;;;11.60;99.90;;;;;;5042075;28;20206;-60
2023/12/24 04:05:14;;;;;;;0.27;0.23;;;11.60;99.90;;;;;;5044487;28;20228;-59
2023/12/24 04:07:41;;;;;;;0.70;0.30;;;11.60;99.90;;;;;;5044402;28;20212;-59
2023/12/24 04:10:08;;;;;;;0.37;0.20;;;11.50;99.90;;;;;;5040749;28;20260;-60
2023/12/24 04:12:35;;;;;;;0.43;0.30;;;11.50;99.90;;;;;;5041011;28;20222;-59
2023/12/24 04:15:02;;;;;;;0.20;0.20;;;11.50;99.90;;;;;;5043955;28;20285;-60
2023/12/24 04:17:28;;;;;;;0.23;0.23;;;11.50;99.90;;;;;;5050086;22;20227;-54
2023/12/24 04:19:56;;;;;;;0.40;0.30;;;11.60;99.90;;;;;;5023084;28;20214;-54
2023/12/24 04:22:23;;;;;;;0.20;0.20;;;11.60;99.90;;;;;;5023856;28;20733;-54
2023/12/24 04:24:50;;;;;;;0.90;0.30;;;11.60;99.90;;;;;;5022423;28;20280;-54
2023/12/24 04:27:16;;;;;;;0.70;0.30;;;11.60;99.90;;;;;;5020542;28;20233;-55
2023/12/24 04:29:43;;;;;;;0.40;0.33;;;11.60;99.90;;;;;;5021351;28;20672;-54
2023/12/24 04:32:10;;;;;;;0.40;0.40;;;11.60;99.90;;;;;;5023603;28;20584;-54
2023/12/24 04:34:37;;;;;;;0.50;0.30;;;11.60;99.90;;;;;;5023804;28;20293;-54
2023/12/24 04:37:05;;;;;;;0.87;0.33;;;11.70;99.90;;;;;;5020189;28;20273;-54
2023/12/24 04:39:32;;;;;;;0.40;0.40;;;11.70;99.90;;;;;;5020209;28;20641;-55
2023/12/24 04:41:58;;;;;;;0.70;0.40;;;11.70;99.90;;;;;;5022091;28;20687;-54
2023/12/24 04:44:25;;;;;;;1.03;0.50;;;11.70;99.90;;;;;;5023619;28;20218;-54
2023/12/24 04:46:52;;;;;;;0.47;0.30;;;11.70;99.90;;;;;;5021673;28;20734;-56
2023/12/24 04:49:18;;;;;;;0.87;0.60;;;11.60;99.90;;;;;;5020194;28;20345;-55
2023/12/24 04:51:46;;;;;;;0.50;0.50;;;11.70;99.90;;;;;;5020468;28;20676;-54
2023/12/24 04:54:14;;;;;;;0.90;0.50;;;11.70;99.90;;;;;;5023619;28;20624;-54
2023/12/24 04:56:40;;;;;;;0.73;0.30;;;11.70;99.90;;;;;;5023423;28;20222;-54
2023/12/24 04:59:06;;;;;;;0.30;0.30;;;11.60;99.90;;;;;;5020094;28;20203;-54
2023/12/24 05:01:33;;;;;;;1.33;0.60;;;11.60;99.90;;;;;;5020037;28;20683;-54
2023/12/24 05:03:59;;;;;;;0.43;0.30;;;11.50;99.90;;;;;;5022269;28;20277;-54
2023/12/24 05:06:29;;;;;;;0.60;0.37;;;11.50;99.90;;;;;;5023245;28;20272;-54
2023/12/24 05:08:55;;;;;;;0.67;0.37;;;11.50;99.90;;;;;;5021340;28;20241;-54
2023/12/24 05:11:23;;;;;;;0.40;0.40;;;11.50;99.90;;;;;;5019890;28;20206;-54
2023/12/24 05:13:50;;;;;;;0.63;0.40;;;11.60;99.90;;;;;;5021329;28;20203;-54
2023/12/24 05:16:17;;;;;;;0.40;0.37;;;11.60;99.90;;;;;;5023280;28;20226;-54
2023/12/24 05:18:44;;;;;;;1.20;0.40;;;11.70;99.90;;;;;;5022949;28;20210;-54
2023/12/24 05:21:10;;;;;;;0.50;0.40;;;11.70;99.90;;;;;;5019829;28;20515;-54
2023/12/24 05:23:37;;;;;;;0.60;0.60;;;11.70;99.90;;;;;;5019820;28;20277;-54
2023/12/24 05:26:04;;;;;;;0.40;0.40;;;11.60;99.90;;;;;;5022667;28;20222;-54
2023/12/24 05:28:32;;;;;;;0.40;0.40;;;11.50;99.90;;;;;;5022932;28;20214;-54
2023/12/24 05:31:00;;;;;;;1.43;0.50;;;11.50;99.90;;;;;;5020301;28;20217;-56
2023/12/24 05:33:26;;;;;;;0.47;0.43;;;11.50;99.90;;;;;;5019467;28;20290;-54
2023/12/24 05:35:53;;;;;;;1.30;0.30;;;11.40;99.90;;;;;;5021113;28;20297;-56
2023/12/24 05:38:20;;;;;;;0.83;0.37;;;11.40;99.90;;;;;;5023315;28;20237;-54
2023/12/24 05:40:46;;;;;;;0.63;0.33;;;11.40;99.90;;;;;;5022097;28;20202;-54
2023/12/24 05:43:13;;;;;;;3.40;0.40;;;11.40;99.90;;;;;;5019500;28;20210;-55
2023/12/24 05:45:41;;;;;;;1.03;0.37;;;11.40;99.90;;;;;;5019311;28;20226;-54
2023/12/24 05:48:08;;;;;;;0.53;0.30;;;11.40;99.90;;;;;;5006826;28;20209;-55
2023/12/24 05:50:34;;;;;;;0.40;0.27;;;11.50;99.90;;;;;;5022870;28;20210;-54
2023/12/24 05:53:01;;;;;;;1.33;0.37;;;11.50;99.90;;;;;;5021469;28;20202;-55
2023/12/24 05:55:28;;;;;;;0.47;0.30;;;11.50;99.90;;;;;;5023600;28;20636;-54
2023/12/24 05:57:54;;;;;;;1.17;0.30;;;11.50;99.90;;;;;;5025070;28;20211;-54
2023/12/24 06:00:21;;;;;;;0.83;0.30;;;11.50;99.90;;;;;;5026978;28;20441;-53
2023/12/24 06:02:50;;;;;;;0.20;0.20;;;11.50;99.90;;;;;;5026265;28;20590;-53
2023/12/24 06:05:16;;;;;;;0.73;0.30;;;11.50;99.90;;;;;;5023968;28;20219;-53
2023/12/24 06:07:43;;;;;;;0.60;0.30;;;11.60;99.90;;;;;;5024439;28;20241;-54
2023/12/24 06:10:10;;;;;;;0.30;0.30;;;11.60;99.90;;;;;;5026577;28;20202;-54
2023/12/24 06:12:37;;;;;;;0.77;0.30;;;11.50;99.90;;;;;;5026767;28;20210;-54
2023/12/24 06:15:04;;;;;;;1.57;0.50;;;11.50;99.90;;;;;;5023545;28;20195;-53
2023/12/24 06:17:31;;;;;;;1.00;0.40;;;11.50;99.90;;;;;;5023115;28;20230;-53
2023/12/24 06:19:59;;;;;;;0.23;0.20;;;11.50;99.90;;;;;;5024884;28;20743;-53
2023/12/24 06:22:26;;;;;;;0.40;0.40;;;11.50;99.90;;;;;;5026229;28;20644;-54
2023/12/24 06:24:53;;;;;;;0.27;0.20;;;11.50;99.90;;;;;;5024748;28;20260;-54
2023/12/24 06:27:19;;;;;;;0.37;0.30;;;11.60;99.90;;;;;;5022950;28;20310;-53
2023/12/24 06:29:46;;;;;;;0.20;0.20;;;11.60;99.90;;;;;;5023096;28;20215;-55
2023/12/24 06:32:13;;;;;;;0.57;0.30;;;11.60;99.90;;;;;;5026270;28;20207;-53
2023/12/24 06:34:41;;;;;;;0.20;0.10;;;11.60;99.90;;;;;;5026129;28;20644;-53
2023/12/24 06:37:09;;;;;;;0.47;0.30;;;11.40;99.90;;;;;;5022722;28;20219;-53
2023/12/24 06:39:35;;;;;;;0.60;0.30;;;11.50;99.90;;;;;;5022797;28;20203;-54
2023/12/24 06:42:02;;;;;;;0.10;0.10;;;11.40;99.90;;;;;;5025134;28;20218;-53
2023/12/24 06:44:29;;;;;;;0.80;0.30;;;11.50;99.90;;;;;;5025986;28;20230;-54
2023/12/24 06:46:55;;;;;;;0.47;0.40;;;11.50;99.90;;;;;;5024324;28;20235;-54
2023/12/24 06:49:22;;;;;;;1.03;0.43;;;11.50;99.90;;;;;;5022386;28;20206;-54
2023/12/24 06:51:49;;;;;;;0.83;0.40;;;11.60;99.90;;;;;;5022839;28;20713;-54
2023/12/24 06:54:17;;;;;;;1.13;0.87;;;11.60;99.90;;;;;;5025644;28;20199;-54
2023/12/24 06:56:43;;;;;;;0.53;0.40;;;11.70;99.90;;;;;;5025582;28;20275;-54
2023/12/24 06:59:10;;;;;;;0.20;0.20;;;11.60;99.90;;;;;;5014720;28;20233;-53
2023/12/24 07:01:37;;;;;;;0.33;0.33;;;11.60;99.90;;;;;;5022309;28;20257;-54
2023/12/24 07:04:04;;;;;;;2.47;0.50;;;11.60;99.90;;;;;;5024200;28;20301;-54
2023/12/24 07:06:31;;;;;;;0.33;0.30;;;11.60;99.90;;;;;;5025450;28;20234;-55
2023/12/24 07:08:57;;;;;;;0.50;0.30;;;11.60;99.90;;;;;;5023737;28;20234;-54
2023/12/24 07:11:25;;;;;;;0.40;0.30;;;11.50;99.90;;;;;;5022587;28;20589;-54
2023/12/24 07:13:52;;;;;;;0.43;0.20;;;11.60;99.90;;;;;;5023077;28;20210;-55
2023/12/24 07:16:19;;;;;;;0.97;0.30;;;11.60;99.90;;;;;;5025194;28;20272;-56
2023/12/24 07:18:45;;;;;;;0.30;0.30;;;11.70;99.90;;;;;;5024960;28;20268;-55
2023/12/24 07:21:12;;;;;;;0.43;0.43;;;11.70;99.90;;;;;;5021707;28;20257;-54
2023/12/24 07:23:39;;;;;;;0.40;0.20;;;11.60;99.90;;;;;;5021853;28;20691;-55
2023/12/24 07:26:06;;;;;;;0.20;0.20;;;11.60;99.90;;;;;;5024174;28;20234;-54
2023/12/24 07:28:35;;;;;;;0.97;0.70;;;11.60;99.90;;;;;;5025253;28;20296;-53
2023/12/24 07:31:02;;;;;;;0.60;0.40;;;11.60;99.90;;;;;;5022533;28;20597;-53
2023/12/24 07:33:29;;;;;;;2.80;2.33;;;11.60;99.90;;;;;;5021649;28;20203;-53
2023/12/24 07:35:55;;;;;;;4.83;4.13;;;11.60;99.90;;;;;;5022943;28;20223;-54
2023/12/24 07:38:22;;;;;;;1.50;1.20;;;11.70;99.90;;;;;;5024745;28;20210;-53
2023/12/24 07:40:49;;;;;;;0.93;0.60;;;11.70;99.90;;;;;;5024250;28;20202;-53
2023/12/24 07:43:15;;;;;;;1.03;0.33;;;11.60;99.90;;;;;;5021455;28;20203;-55
2023/12/24 07:45:43;;;;;;;0.93;0.67;;;11.60;99.90;;;;;;5021299;28;20227;-54
2023/12/24 07:48:10;;;;;;;0.37;0.27;;;11.60;99.90;;;;;;5024654;28;20252;-54
2023/12/24 07:50:37;;;;;;;1.33;0.47;;;11.70;99.90;;;;;;5024686;28;20210;-54
2023/12/24 07:53:04;;;;;;;0.93;0.60;;;11.60;99.90;;;;;;5022341;28;20206;-54
2023/12/24 07:55:30;;;;;;;0.53;0.40;;;11.70;99.90;;;;;;5021237;28;20207;-55
2023/12/24 07:57:57;;;;;;;1.23;0.33;;;11.80;99.90;;;;;;5022710;28;20745;-54
2023/12/24 08:00:24;;;;;;;0.67;0.50;;;11.60;99.90;;;;;;5024759;28;20721;-54
2023/12/24 08:02:52;;;;;;;0.57;0.40;;;11.60;99.90;;;;;;5023994;28;20216;-54
2023/12/24 08:05:18;;;;;;;1.30;0.90;;;11.60;99.90;;;;;;5021082;28;20234;-58
2023/12/24 08:07:45;;;;;;;1.03;0.70;;;11.70;99.90;;;;;;5020954;28;20222;-54
2023/12/24 08:10:12;;;;;;;2.40;1.43;;;11.70;99.90;;;;;;5012633;28;20211;-57
2023/12/24 08:12:39;;;;;;;1.67;0.80;;;11.70;99.90;;;;;;5020687;28;20696;-54
2023/12/24 08:15:07;;;;;;;0.50;0.50;;;11.80;99.90;;;;;;5024000;28;20207;-55
2023/12/24 08:17:34;;;;;;;0.33;0.20;;;11.80;99.90;;;;;;5023894;28;20268;-56
2023/12/24 08:20:03;;;;;;;1.90;0.50;;;11.80;99.90;;;;;;5022207;28;20690;-54
2023/12/24 08:22:29;;;;;;;1.53;0.60;;;11.90;99.90;;;;;;5021332;28;20230;-54
2023/12/24 08:24:56;;;;;;;0.63;0.57;;;11.90;99.90;;;;;;5022099;28;20521;-54
2023/12/24 08:27:23;;;;;;;0.40;0.40;;;11.90;99.90;;;;;;5024122;28;20652;-54
2023/12/24 08:29:49;;;;;;;1.70;0.40;;;11.90;99.90;;;;;;5023886;28;20213;-54
2023/12/24 08:32:16;;;;;;;2.40;0.60;;;12.00;99.90;;;;;;5020334;28;20207;-55
2023/12/24 08:34:43;;;;;;;0.47;0.47;;;12.10;99.90;;;;;;5020286;28;20207;-54
2023/12/24 08:37:10;;;;;;;0.30;0.30;;;12.00;99.90;;;;;;5023690;28;20224;-54
2023/12/24 08:39:37;;;;;;;0.30;0.30;;;12.00;99.90;;;;;;5023880;28;20215;-55
2023/12/24 08:42:04;;;;;;;1.57;1.27;;;12.00;99.90;;;;;;5021052;28;20207;-54
2023/12/24 08:44:31;;;;;;;0.53;0.30;;;12.00;99.90;;;;;;5020143;28;20615;-54
2023/12/24 08:46:58;;;;;;;1.23;0.43;;;12.00;99.90;;;;;;5021510;28;20277;-53
2023/12/24 08:49:24;;;;;;;0.33;0.23;;;12.00;99.90;;;;;;5023606;28;20225;-54
2023/12/24 08:51:51;;;;;;;1.67;1.13;;;12.00;99.90;;;;;;5022837;28;20641;-54
2023/12/24 08:54:19;;;;;;;0.93;0.30;;;11.90;99.90;;;;;;5020227;28;20207;-54
2023/12/24 08:56:46;;;;;;;0.33;0.20;;;11.90;99.90;;;;;;5020293;28;20230;-54
2023/12/24 08:59:12;;;;;;;0.53;0.20;;;11.90;99.90;;;;;;5007303;28;20209;-54
2023/12/24 09:01:41;;;;;;;0.30;0.20;;;12.00;99.90;;;;;;5023199;28;20210;-54
2023/12/24 09:04:08;;;;;;;0.10;0.10;;;12.10;99.90;;;;;;5020599;28;20759;-54
2023/12/24 09:06:37;;;;;;;0.40;0.30;;;12.10;99.90;;;;;;5020128;28;20238;-53
2023/12/24 09:09:04;;;;;;;0.80;0.20;;;12.20;99.90;;;;;;5022052;28;20210;-54
2023/12/24 09:11:32;;;;;;;0.13;0.13;;;12.10;99.90;;;;;;5023321;28;20210;-54
2023/12/24 09:13:59;;;;;;;0.77;0.67;;;12.20;99.90;;;;;;5022293;28;20719;-54
2023/12/24 09:16:25;;;;;;;4.33;2.67;;;12.20;99.90;;;;;;5019461;28;20296;-54
2023/12/24 09:18:52;;;;;;;1.00;0.30;;;12.20;99.90;;;;;;5020306;28;20604;-54
2023/12/24 09:21:19;;;;;;;0.63;0.43;;;12.30;99.90;;;;;;5022868;28;20695;-54
2023/12/24 09:23:46;;;;;;;3.07;1.53;;;12.30;99.90;;;;;;5022896;28;20206;-54
2023/12/24 09:26:12;;;;;;;0.67;0.30;;;12.30;99.90;;;;;;5019544;28;20230;-54
2023/12/24 09:28:40;;;;;;;0.30;0.20;;;12.40;99.90;;;;;;5019541;28;20215;-54
2023/12/24 09:31:07;;;;;;;0.50;0.23;;;12.40;99.90;;;;;;5022081;28;20630;-54
2023/12/24 09:33:34;;;;;;;0.20;0.20;;;12.40;99.90;;;;;;5023130;28;20218;-55
2023/12/24 09:36:07;;;;;;;0.73;0.20;;;12.50;99.90;;;;;;5021549;28;20276;-54
2023/12/24 09:38:33;;;;;;;0.50;0.30;;;12.40;99.90;;;;;;5019625;28;20269;-54
2023/12/24 09:41:00;;;;;;;3.53;1.97;;;12.40;99.90;;;;;;5020899;28;20285;-55
2023/12/24 09:43:30;;;;;;;6.83;3.80;;;12.30;99.90;;;;;;5022496;28;20288;-54
2023/12/24 09:45:59;;;;;;;1.33;0.70;;;12.20;99.90;;;;;;5021309;28;20646;-55
2023/12/24 09:48:26;;;;;;;1.43;0.30;;;12.20;99.90;;;;;;5019988;28;20211;-55
2023/12/24 09:50:52;;;;;;;0.20;0.20;;;12.30;99.90;;;;;;5020452;28;20215;-54
2023/12/24 09:53:19;;;;;;;0.47;0.40;;;12.20;99.90;;;;;;5023035;28;20753;-54
2023/12/24 09:55:46;;;;;;;0.30;0.30;;;12.20;99.90;;;;;;5022933;28;20500;-54
2023/12/24 09:58:12;;;;;;;1.80;0.50;;;12.20;99.90;;;;;;5019662;28;20214;-55
2023/12/24 10:00:39;;;;;;;0.27;0.27;;;12.10;99.90;;;;;;5019237;28;20224;-54
2023/12/24 10:03:07;;;;;;;0.77;0.77;;;12.20;99.90;;;;;;5021733;28;20359;-55
2023/12/24 10:05:34;;;;;;;3.23;1.70;;;12.30;99.90;;;;;;5022874;28;20222;-59
2023/12/24 10:08:02;;;;;;;0.50;0.30;;;12.30;99.90;;;;;;5021254;28;20210;-55
2023/12/24 10:10:30;;;;;;;0.43;0.30;;;12.30;99.90;;;;;;5024421;28;20217;-55
2023/12/24 10:13:05;;;;;;;1.90;1.13;;;12.40;99.90;;;;;;5021806;28;20210;-54
2023/12/24 10:15:32;;;;;;;3.80;2.60;;;12.50;99.90;;;;;;5019025;28;20678;-63
2023/12/24 10:18:17;;;;;;;1.23;0.70;;;12.50;99.90;;;;;;5051216;22;20237;-60
2023/12/24 10:20:44;;;;;;;1.10;0.68;;;12.40;99.90;;;;;;5029255;28;20492;-58
2023/12/24 10:23:10;;;;;;;2.77;1.30;;;12.40;99.90;;;;;;5030302;28;20582;-61
2023/12/24 10:25:37;;;;;;;1.40;0.73;;;12.40;99.90;;;;;;5030764;28;20644;-62
2023/12/24 10:28:06;;;;;;;1.00;0.33;;;12.40;99.90;;;;;;5039124;28;20632;-62
2023/12/24 10:30:33;;;;;;;1.73;0.53;;;12.40;99.90;;;;;;5038731;28;20230;-62
2023/12/24 10:33:09;;;;;;;1.23;0.50;;;12.40;99.90;;;;;;5040209;28;20210;-62
2023/12/24 10:35:37;;;;;;;0.60;0.40;;;12.30;99.90;;;;;;5042383;28;20284;-61
2023/12/24 10:38:12;;;;;;;0.70;0.30;;;12.30;99.90;;;;;;5040333;28;20308;-65
2023/12/24 10:40:39;;;;;;;0.87;0.43;;;12.30;99.90;;;;;;5035214;28;20291;-60
2023/12/24 10:43:05;;;;;;;0.40;0.40;;;12.30;99.90;;;;;;5034095;28;20260;-61
2023/12/24 10:45:32;;;;;;;1.07;0.30;;;12.40;99.90;;;;;;5034129;28;20711;-61
2023/12/24 10:47:59;;;;;;;0.47;0.43;;;12.30;99.90;;;;;;5033767;28;20245;-63
2023/12/24 10:50:26;;;;;;;1.20;0.30;;;12.30;99.90;;;;;;5034008;28;20214;-62
2023/12/24 10:52:54;;;;;;;2.33;1.33;;;12.30;99.90;;;;;;5034131;28;20221;-63
2023/12/24 10:55:22;;;;;;;1.33;0.80;;;12.30;99.90;;;;;;5034160;28;20403;-61
2023/12/24 10:57:59;;;;;;;0.40;0.33;;;12.30;99.90;;;;;;5033730;28;20263;-62
2023/12/24 11:00:26;;;;;;;0.20;0.20;;;12.30;99.90;;;;;;5026789;28;20255;-61
2023/12/24 11:02:53;;;;;;;0.60;0.30;;;12.50;99.90;;;;;;5033715;28;20218;-61
2023/12/24 11:05:48;;;;;;;1.13;0.50;;;12.60;99.90;;;;;;5033939;28;20292;-61
2023/12/24 11:08:30;;;;;;;0.50;0.40;;;12.70;99.90;;;;;;5033730;28;20206;-60
2023/12/24 11:10:57;;;;;;;1.37;0.40;;;12.70;99.90;;;;;;5033539;28;20477;-61
2023/12/24 11:13:48;;;;;;;1.63;1.47;;;12.60;99.90;;;;;;5033625;28;20210;-61
2023/12/24 11:16:41;;;;;;;1.13;0.50;;;12.60;99.90;;;;;;5010495;28;20722;-63
2023/12/24 11:19:07;;;;;;;1.07;0.60;;;12.70;99.90;;;;;;5033472;28;20599;-61
2023/12/24 11:22:09;;;;;;;1.57;0.60;;;12.70;99.90;;;;;;5033217;28;20221;-62
2023/12/24 11:24:41;;;;;;;0.40;0.17;;;12.70;99.90;;;;;;5028361;28;20216;-62
2023/12/24 11:27:09;;;;;;;1.37;0.60;;;12.60;99.90;;;;;;5033354;28;20313;-61
2023/12/24 11:29:46;;;;;;;1.47;0.40;;;12.60;99.90;;;;;;5032952;28;20214;-61
2023/12/24 11:32:35;;;;;;;2.17;0.73;;;12.60;99.90;;;;;;5033328;28;20230;-61
2023/12/24 11:35:02;;;;;;;2.77;2.17;;;12.70;99.90;;;;;;5030036;28;20217;-61
2023/12/24 11:37:33;;;;;;;0.70;0.50;;;12.70;99.90;;;;;;5031226;28;20226;-62
2023/12/24 11:40:01;;;;;;;2.03;0.30;;;12.70;99.90;;;;;;5033635;28;20210;-63
2023/12/24 11:42:42;;;;;;;0.40;0.20;;;12.70;99.90;;;;;;5033150;28;20285;-61
2023/12/24 11:45:18;;;;;;;0.60;0.20;;;12.70;99.90;;;;;;5033282;28;20260;-61
2023/12/24 11:47:45;;;;;;;0.70;0.40;;;12.70;99.90;;;;;;5033482;28;20240;-64
2023/12/24 11:50:13;;;;;;;2.37;1.23;;;12.70;99.90;;;;;;5032526;28;20218;-63
2023/12/24 11:52:45;;;;;;;1.07;0.40;;;12.70;99.90;;;;;;5032578;28;20220;-61
2023/12/24 11:55:15;;;;;;;0.63;0.60;;;12.80;99.90;;;;;;5032843;28;20218;-61
2023/12/24 11:57:42;;;;;;;0.50;0.40;;;12.80;99.90;;;;;;5032994;28;20233;-61
2023/12/24 12:00:13;;;;;;;0.60;0.37;;;13.00;99.90;;;;;;5032622;28;20572;-62
2023/12/24 12:02:40;;;;;;;0.50;0.40;;;13.00;99.90;;;;;;5032263;28;20302;-60
2023/12/24 12:05:08;;;;;;;3.87;2.77;;;13.00;99.90;;;;;;5032207;28;20210;-60
2023/12/24 12:07:35;;;;;;;2.00;0.40;;;13.00;99.90;;;;;;5033042;28;20268;-62
2023/12/24 12:10:04;;;;;;;1.50;0.83;;;13.00;99.90;;;;;;5032924;28;20336;-61
2023/12/24 12:12:30;;;;;;;0.47;0.33;;;13.10;99.90;;;;;;5032753;28;20469;-63
2023/12/24 12:14:57;;;;;;;1.20;1.10;;;13.20;99.90;;;;;;5032165;28;20210;-61
2023/12/24 12:17:24;;;;;;;0.40;0.20;;;13.30;99.90;;;;;;5032188;28;20226;-62
2023/12/24 12:19:51;;;;;;;1.07;0.30;;;13.40;99.90;;;;;;5032296;28;20226;-64
2023/12/24 12:22:18;;;;;;;1.23;0.60;;;13.60;99.90;;;;;;5032239;28;20217;-62
2023/12/24 12:24:44;;;;;;;0.60;0.53;;;13.70;99.90;;;;;;5032514;28;20214;-63
2023/12/24 12:27:12;;;;;;;0.60;0.30;;;13.80;99.90;;;;;;5032168;28;20241;-61
2023/12/24 12:29:39;;;;;;;0.50;0.37;;;14.10;99.90;;;;;;5032046;28;20210;-64
2023/12/24 12:32:07;;;;;;;0.40;0.20;;;14.20;99.90;;;;;;5031731;28;20272;-61
2023/12/24 12:34:34;;;;;;;0.40;0.30;;;14.20;99.90;;;;;;5040064;28;20210;-61
2023/12/24 12:37:00;;;;;;;1.40;0.40;;;14.20;99.90;;;;;;5033119;28;20234;-62
2023/12/24 12:39:27;;;;;;;0.83;0.40;;;14.30;99.90;;;;;;5043832;28;20205;-61
2023/12/24 12:41:54;;;;;;;0.20;0.20;;;14.30;99.90;;;;;;5043912;28;20209;-62
2023/12/24 12:44:22;;;;;;;0.60;0.40;;;14.20;99.90;;;;;;5032689;28;20338;-62
2023/12/24 12:46:49;;;;;;;0.77;0.47;;;14.10;99.90;;;;;;5040258;28;20291;-61
2023/12/24 12:49:15;;;;;;;0.20;0.20;;;14.10;99.90;;;;;;5043341;28;20301;-63
2023/12/24 12:51:43;;;;;;;0.27;0.20;;;14.00;99.90;;;;;;5044198;28;20205;-62